sensor_id;sensor_type;location;lat;lon;timestamp;P1;P2;P0
64138;PMS5003;50435;43.700;-79.318;2022-07-09T00:01:36;11;11;
64138;PMS5003;50435;43.700;-79.318;2022-07-09T00:04:04;8;8;
64138;PMS5003;50435;43.700;-79.318;2022-07-09T00:06:31;7;7;
64138;PMS5003;50435;43.700;-79.318;2022-07-09T00:08:58;6;6;
64138;PMS5003;50435;43.700;-79.318;2022-07-09T00:11:26;7;7;
64138;PMS5003;50435;43.700;-79.318;2022-07-09T00:13:53;9;9;
64138;PMS5003;50435;43.700;-79.318;2022-07-09T00:16:20;9;9;
64138;PMS5003;50435;43.700;-79.318;2022-07-09T00:18:48;5;5;
64138;PMS5003;50435;43.700;-79.318;2022-07-09T00:21:15;7;7;
64138;PMS5003;50435;43.700;-79.318;2022-07-09T00:23:43;8;8;
64138;PMS5003;50435;43.700;-79.318;2022-07-09T00:26:10;7;6;
64138;PMS5003;50435;43.700;-79.318;2022-07-09T00:28:37;6;6;
64138;PMS5003;50435;43.700;-79.318;2022-07-09T00:31:05;7;7;
64138;PMS5003;50435;43.700;-79.318;2022-07-09T00:33:32;9;8;
64138;PMS5003;50435;43.700;-79.318;2022-07-09T00:35:59;6;6;
64138;PMS5003;50435;43.700;-79.318;2022-07-09T00:38:27;4;4;
64138;PMS5003;50435;43.700;-79.318;2022-07-09T00:40:54;10;7;
64138;PMS5003;50435;43.700;-79.318;2022-07-09T00:43:22;11;9;
64138;PMS5003;50435;43.700;-79.318;2022-07-09T00:45:49;7;7;
64138;PMS5003;50435;43.700;-79.318;2022-07-09T00:48:17;7;7;
64138;PMS5003;50435;43.700;-79.318;2022-07-09T00:50:44;7;6;
64138;PMS5003;50435;43.700;-79.318;2022-07-09T00:53:12;5;5;
64138;PMS5003;50435;43.700;-79.318;2022-07-09T00:55:42;5;5;
64138;PMS5003;50435;43.700;-79.318;2022-07-09T00:58:14;5;5;
64138;PMS5003;50435;43.700;-79.318;2022-07-09T01:00:44;6;5;
64138;PMS5003;50435;43.700;-79.318;2022-07-09T01:03:11;5;5;
64138;PMS5003;50435;43.700;-79.318;2022-07-09T01:05:38;5;5;
64138;PMS5003;50435;43.700;-79.318;2022-07-09T01:08:07;5;5;
64138;PMS5003;50435;43.700;-79.318;2022-07-09T01:10:35;4;4;
64138;PMS5003;50435;43.700;-79.318;2022-07-09T01:13:04;6;5;
64138;PMS5003;50435;43.700;-79.318;2022-07-09T01:15:32;7;7;
64138;PMS5003;50435;43.700;-79.318;2022-07-09T01:18:00;7;7;
64138;PMS5003;50435;43.700;-79.318;2022-07-09T01:20:28;8;5;
64138;PMS5003;50435;43.700;-79.318;2022-07-09T01:22:56;7;6;
64138;PMS5003;50435;43.700;-79.318;2022-07-09T01:25:28;6;6;
64138;PMS5003;50435;43.700;-79.318;2022-07-09T01:28:01;7;5;
64138;PMS5003;50435;43.700;-79.318;2022-07-09T01:30:29;6;6;
64138;PMS5003;50435;43.700;-79.318;2022-07-09T01:32:56;6;4;
64138;PMS5003;50435;43.700;-79.318;2022-07-09T01:35:24;6;6;
64138;PMS5003;50435;43.700;-79.318;2022-07-09T01:37:52;3;3;
64138;PMS5003;50435;43.700;-79.318;2022-07-09T01:40:19;9;6;
64138;PMS5003;50435;43.700;-79.318;2022-07-09T01:42:47;4;4;
64138;PMS5003;50435;43.700;-79.318;2022-07-09T01:45:15;6;6;
64138;PMS5003;50435;43.700;-79.318;2022-07-09T01:47:43;7;7;
64138;PMS5003;50435;43.700;-79.318;2022-07-09T01:50:10;5;5;
64138;PMS5003;50435;43.700;-79.318;2022-07-09T01:52:38;8;5;
64138;PMS5003;50435;43.700;-79.318;2022-07-09T01:55:05;3;3;
64138;PMS5003;50435;43.700;-79.318;2022-07-09T01:57:34;5;4;
64138;PMS5003;50435;43.700;-79.318;2022-07-09T02:00:01;4;4;
64138;PMS5003;50435;43.700;-79.318;2022-07-09T02:02:30;3;2;
64138;PMS5003;50435;43.700;-79.318;2022-07-09T02:04:58;4;4;
64138;PMS5003;50435;43.700;-79.318;2022-07-09T02:07:25;6;6;
64138;PMS5003;50435;43.700;-79.318;2022-07-09T02:09:53;6;6;
64138;PMS5003;50435;43.700;-79.318;2022-07-09T02:12:20;7;5;
64138;PMS5003;50435;43.700;-79.318;2022-07-09T02:14:48;4;4;
64138;PMS5003;50435;43.700;-79.318;2022-07-09T02:17:15;3;3;
64138;PMS5003;50435;43.700;-79.318;2022-07-09T02:19:42;4;4;
64138;PMS5003;50435;43.700;-79.318;2022-07-09T02:22:10;4;4;
64138;PMS5003;50435;43.700;-79.318;2022-07-09T02:24:38;3;3;
64138;PMS5003;50435;43.700;-79.318;2022-07-09T02:27:05;3;3;
64138;PMS5003;50435;43.700;-79.318;2022-07-09T02:29:33;4;4;
64138;PMS5003;50435;43.700;-79.318;2022-07-09T02:32:00;3;3;
64138;PMS5003;50435;43.700;-79.318;2022-07-09T02:34:27;3;3;
64138;PMS5003;50435;43.700;-79.318;2022-07-09T02:36:55;1;1;
64138;PMS5003;50435;43.700;-79.318;2022-07-09T02:39:22;3;3;
64138;PMS5003;50435;43.700;-79.318;2022-07-09T02:41:50;3;3;
64138;PMS5003;50435;43.700;-79.318;2022-07-09T02:44:17;4;4;
64138;PMS5003;50435;43.700;-79.318;2022-07-09T02:46:45;4;4;
64138;PMS5003;50435;43.700;-79.318;2022-07-09T02:49:12;5;5;
64138;PMS5003;50435;43.700;-79.318;2022-07-09T02:51:40;2;2;
64138;PMS5003;50435;43.700;-79.318;2022-07-09T02:54:07;3;3;
64138;PMS5003;50435;43.700;-79.318;2022-07-09T02:56:35;3;3;
64138;PMS5003;50435;43.700;-79.318;2022-07-09T02:59:03;4;3;
64138;PMS5003;50435;43.700;-79.318;2022-07-09T03:01:30;4;4;
64138;PMS5003;50435;43.700;-79.318;2022-07-09T03:03:57;4;4;
64138;PMS5003;50435;43.700;-79.318;2022-07-09T03:06:25;3;3;
64138;PMS5003;50435;43.700;-79.318;2022-07-09T03:08:52;4;4;
64138;PMS5003;50435;43.700;-79.318;2022-07-09T03:11:20;4;4;
64138;PMS5003;50435;43.700;-79.318;2022-07-09T03:13:48;3;3;
64138;PMS5003;50435;43.700;-79.318;2022-07-09T03:16:15;3;3;
64138;PMS5003;50435;43.700;-79.318;2022-07-09T03:18:43;4;4;
64138;PMS5003;50435;43.700;-79.318;2022-07-09T03:21:10;5;5;
64138;PMS5003;50435;43.700;-79.318;2022-07-09T03:23:38;1;1;
64138;PMS5003;50435;43.700;-79.318;2022-07-09T03:26:05;3;2;
64138;PMS5003;50435;43.700;-79.318;2022-07-09T03:28:34;2;2;
64138;PMS5003;50435;43.700;-79.318;2022-07-09T03:31:01;2;2;
64138;PMS5003;50435;43.700;-79.318;2022-07-09T03:33:28;2;2;
64138;PMS5003;50435;43.700;-79.318;2022-07-09T03:35:56;2;1;
64138;PMS5003;50435;43.700;-79.318;2022-07-09T03:38:24;1;1;
64138;PMS5003;50435;43.700;-79.318;2022-07-09T03:40:51;3;3;
64138;PMS5003;50435;43.700;-79.318;2022-07-09T03:43:19;2;2;
64138;PMS5003;50435;43.700;-79.318;2022-07-09T03:45:46;3;1;
64138;PMS5003;50435;43.700;-79.318;2022-07-09T03:48:13;3;3;
64138;PMS5003;50435;43.700;-79.318;2022-07-09T03:50:41;2;2;
64138;PMS5003;50435;43.700;-79.318;2022-07-09T03:53:09;3;3;
64138;PMS5003;50435;43.700;-79.318;2022-07-09T03:55:36;2;2;
64138;PMS5003;50435;43.700;-79.318;2022-07-09T03:58:04;2;2;
64138;PMS5003;50435;43.700;-79.318;2022-07-09T04:00:32;2;2;
64138;PMS5003;50435;43.700;-79.318;2022-07-09T04:02:59;1;1;
64138;PMS5003;50435;43.700;-79.318;2022-07-09T04:05:27;1;1;
64138;PMS5003;50435;43.700;-79.318;2022-07-09T04:07:54;3;1;
64138;PMS5003;50435;43.700;-79.318;2022-07-09T04:10:21;2;2;
64138;PMS5003;50435;43.700;-79.318;2022-07-09T04:12:49;2;2;
64138;PMS5003;50435;43.700;-79.318;2022-07-09T04:15:17;4;3;
64138;PMS5003;50435;43.700;-79.318;2022-07-09T04:17:44;3;2;
64138;PMS5003;50435;43.700;-79.318;2022-07-09T04:20:12;4;2;
64138;PMS5003;50435;43.700;-79.318;2022-07-09T04:22:39;2;2;
64138;PMS5003;50435;43.700;-79.318;2022-07-09T04:25:07;2;2;
64138;PMS5003;50435;43.700;-79.318;2022-07-09T04:27:35;2;2;
64138;PMS5003;50435;43.700;-79.318;2022-07-09T04:30:03;3;3;
64138;PMS5003;50435;43.700;-79.318;2022-07-09T04:32:31;1;1;
64138;PMS5003;50435;43.700;-79.318;2022-07-09T04:34:59;2;2;
64138;PMS5003;50435;43.700;-79.318;2022-07-09T04:37:26;3;3;
64138;PMS5003;50435;43.700;-79.318;2022-07-09T04:39:54;3;1;
64138;PMS5003;50435;43.700;-79.318;2022-07-09T04:42:21;1;1;
64138;PMS5003;50435;43.700;-79.318;2022-07-09T04:44:49;2;2;
64138;PMS5003;50435;43.700;-79.318;2022-07-09T04:47:16;2;2;
64138;PMS5003;50435;43.700;-79.318;2022-07-09T04:49:44;2;2;
64138;PMS5003;50435;43.700;-79.318;2022-07-09T04:52:12;1;1;
64138;PMS5003;50435;43.700;-79.318;2022-07-09T04:54:39;2;1;
64138;PMS5003;50435;43.700;-79.318;2022-07-09T04:57:07;2;2;
64138;PMS5003;50435;43.700;-79.318;2022-07-09T04:59:34;1;1;
64138;PMS5003;50435;43.700;-79.318;2022-07-09T05:02:02;1;1;
64138;PMS5003;50435;43.700;-79.318;2022-07-09T05:04:30;1;1;
64138;PMS5003;50435;43.700;-79.318;2022-07-09T05:06:58;1;1;
64138;PMS5003;50435;43.700;-79.318;2022-07-09T05:09:25;2;2;
64138;PMS5003;50435;43.700;-79.318;2022-07-09T05:11:53;2;2;
64138;PMS5003;50435;43.700;-79.318;2022-07-09T05:14:21;1;1;
64138;PMS5003;50435;43.700;-79.318;2022-07-09T05:16:48;4;3;
64138;PMS5003;50435;43.700;-79.318;2022-07-09T05:19:16;2;2;
64138;PMS5003;50435;43.700;-79.318;2022-07-09T05:21:43;2;2;
64138;PMS5003;50435;43.700;-79.318;2022-07-09T05:24:11;2;2;
64138;PMS5003;50435;43.700;-79.318;2022-07-09T05:26:38;2;2;
64138;PMS5003;50435;43.700;-79.318;2022-07-09T05:29:06;1;1;
64138;PMS5003;50435;43.700;-79.318;2022-07-09T05:31:34;4;4;
64138;PMS5003;50435;43.700;-79.318;2022-07-09T05:34:01;2;2;
64138;PMS5003;50435;43.700;-79.318;2022-07-09T05:36:29;1;1;
64138;PMS5003;50435;43.700;-79.318;2022-07-09T05:38:57;2;2;
64138;PMS5003;50435;43.700;-79.318;2022-07-09T05:41:25;1;1;
64138;PMS5003;50435;43.700;-79.318;2022-07-09T05:43:53;2;2;
64138;PMS5003;50435;43.700;-79.318;2022-07-09T05:46:21;2;2;
64138;PMS5003;50435;43.700;-79.318;2022-07-09T05:48:48;1;1;
64138;PMS5003;50435;43.700;-79.318;2022-07-09T05:51:16;2;2;
64138;PMS5003;50435;43.700;-79.318;2022-07-09T05:53:43;3;1;
64138;PMS5003;50435;43.700;-79.318;2022-07-09T05:56:11;2;2;
64138;PMS5003;50435;43.700;-79.318;2022-07-09T05:58:39;2;2;
64138;PMS5003;50435;43.700;-79.318;2022-07-09T06:01:06;1;1;
64138;PMS5003;50435;43.700;-79.318;2022-07-09T06:03:34;1;1;
64138;PMS5003;50435;43.700;-79.318;2022-07-09T06:06:01;1;1;
64138;PMS5003;50435;43.700;-79.318;2022-07-09T06:08:29;0;0;
64138;PMS5003;50435;43.700;-79.318;2022-07-09T06:10:56;1;1;
64138;PMS5003;50435;43.700;-79.318;2022-07-09T06:13:24;1;1;
64138;PMS5003;50435;43.700;-79.318;2022-07-09T06:15:52;1;1;
64138;PMS5003;50435;43.700;-79.318;2022-07-09T06:18:19;3;3;
64138;PMS5003;50435;43.700;-79.318;2022-07-09T06:20:47;3;1;
64138;PMS5003;50435;43.700;-79.318;2022-07-09T06:23:15;2;2;
64138;PMS5003;50435;43.700;-79.318;2022-07-09T06:25:43;2;2;
64138;PMS5003;50435;43.700;-79.318;2022-07-09T06:28:10;1;1;
64138;PMS5003;50435;43.700;-79.318;2022-07-09T06:30:38;1;1;
64138;PMS5003;50435;43.700;-79.318;2022-07-09T06:33:05;0;0;
64138;PMS5003;50435;43.700;-79.318;2022-07-09T06:35:33;0;0;
64138;PMS5003;50435;43.700;-79.318;2022-07-09T06:38:01;3;1;
64138;PMS5003;50435;43.700;-79.318;2022-07-09T06:40:28;2;2;
64138;PMS5003;50435;43.700;-79.318;2022-07-09T06:42:56;2;2;
64138;PMS5003;50435;43.700;-79.318;2022-07-09T06:45:23;2;2;
64138;PMS5003;50435;43.700;-79.318;2022-07-09T06:47:51;2;2;
64138;PMS5003;50435;43.700;-79.318;2022-07-09T06:50:19;1;1;
64138;PMS5003;50435;43.700;-79.318;2022-07-09T06:52:46;1;1;
64138;PMS5003;50435;43.700;-79.318;2022-07-09T06:55:14;3;1;
64138;PMS5003;50435;43.700;-79.318;2022-07-09T06:57:41;2;2;
64138;PMS5003;50435;43.700;-79.318;2022-07-09T07:00:09;0;0;
64138;PMS5003;50435;43.700;-79.318;2022-07-09T07:02:36;2;2;
64138;PMS5003;50435;43.700;-79.318;2022-07-09T07:05:04;4;4;
64138;PMS5003;50435;43.700;-79.318;2022-07-09T07:07:33;2;2;
64138;PMS5003;50435;43.700;-79.318;2022-07-09T07:10:00;2;2;
64138;PMS5003;50435;43.700;-79.318;2022-07-09T07:12:28;1;1;
64138;PMS5003;50435;43.700;-79.318;2022-07-09T07:14:55;2;2;
64138;PMS5003;50435;43.700;-79.318;2022-07-09T07:17:23;3;2;
64138;PMS5003;50435;43.700;-79.318;2022-07-09T07:19:51;4;2;
64138;PMS5003;50435;43.700;-79.318;2022-07-09T07:22:18;2;2;
64138;PMS5003;50435;43.700;-79.318;2022-07-09T07:24:46;1;1;
64138;PMS5003;50435;43.700;-79.318;2022-07-09T07:27:13;1;1;
64138;PMS5003;50435;43.700;-79.318;2022-07-09T07:29:41;2;2;
64138;PMS5003;50435;43.700;-79.318;2022-07-09T07:32:09;3;3;
64138;PMS5003;50435;43.700;-79.318;2022-07-09T07:34:36;3;1;
64138;PMS5003;50435;43.700;-79.318;2022-07-09T07:37:04;4;3;
64138;PMS5003;50435;43.700;-79.318;2022-07-09T07:39:32;3;3;
64138;PMS5003;50435;43.700;-79.318;2022-07-09T07:41:59;1;1;
64138;PMS5003;50435;43.700;-79.318;2022-07-09T07:44:27;2;2;
64138;PMS5003;50435;43.700;-79.318;2022-07-09T07:46:54;2;2;
64138;PMS5003;50435;43.700;-79.318;2022-07-09T07:49:22;2;2;
64138;PMS5003;50435;43.700;-79.318;2022-07-09T07:51:50;1;1;
64138;PMS5003;50435;43.700;-79.318;2022-07-09T07:54:17;2;1;
64138;PMS5003;50435;43.700;-79.318;2022-07-09T07:56:45;1;1;
64138;PMS5003;50435;43.700;-79.318;2022-07-09T07:59:12;1;1;
64138;PMS5003;50435;43.700;-79.318;2022-07-09T08:01:40;1;1;
64138;PMS5003;50435;43.700;-79.318;2022-07-09T08:04:08;2;2;
64138;PMS5003;50435;43.700;-79.318;2022-07-09T08:06:36;1;1;
64138;PMS5003;50435;43.700;-79.318;2022-07-09T08:09:03;1;1;
64138;PMS5003;50435;43.700;-79.318;2022-07-09T08:11:30;2;2;
64138;PMS5003;50435;43.700;-79.318;2022-07-09T08:13:58;1;1;
64138;PMS5003;50435;43.700;-79.318;2022-07-09T08:16:26;1;1;
64138;PMS5003;50435;43.700;-79.318;2022-07-09T08:18:53;1;1;
64138;PMS5003;50435;43.700;-79.318;2022-07-09T08:21:21;1;1;
64138;PMS5003;50435;43.700;-79.318;2022-07-09T08:23:49;1;1;
64138;PMS5003;50435;43.700;-79.318;2022-07-09T08:26:17;1;1;
64138;PMS5003;50435;43.700;-79.318;2022-07-09T08:28:45;2;2;
64138;PMS5003;50435;43.700;-79.318;2022-07-09T08:31:12;2;2;
64138;PMS5003;50435;43.700;-79.318;2022-07-09T08:33:40;2;2;
64138;PMS5003;50435;43.700;-79.318;2022-07-09T08:36:08;3;3;
64138;PMS5003;50435;43.700;-79.318;2022-07-09T08:38:35;1;1;
64138;PMS5003;50435;43.700;-79.318;2022-07-09T08:41:03;2;2;
64138;PMS5003;50435;43.700;-79.318;2022-07-09T08:43:32;1;1;
64138;PMS5003;50435;43.700;-79.318;2022-07-09T08:46:00;1;1;
64138;PMS5003;50435;43.700;-79.318;2022-07-09T08:48:28;1;1;
64138;PMS5003;50435;43.700;-79.318;2022-07-09T08:50:59;3;3;
64138;PMS5003;50435;43.700;-79.318;2022-07-09T08:53:27;2;2;
64138;PMS5003;50435;43.700;-79.318;2022-07-09T08:55:56;1;1;
64138;PMS5003;50435;43.700;-79.318;2022-07-09T08:58:24;2;2;
64138;PMS5003;50435;43.700;-79.318;2022-07-09T09:00:51;1;1;
64138;PMS5003;50435;43.700;-79.318;2022-07-09T09:03:19;2;2;
64138;PMS5003;50435;43.700;-79.318;2022-07-09T09:05:59;2;2;
64138;PMS5003;50435;43.700;-79.318;2022-07-09T09:08:33;1;0;
64138;PMS5003;50435;43.700;-79.318;2022-07-09T09:11:01;1;1;
64138;PMS5003;50435;43.700;-79.318;2022-07-09T09:13:28;2;2;
64138;PMS5003;50435;43.700;-79.318;2022-07-09T09:16:02;1;1;
64138;PMS5003;50435;43.700;-79.318;2022-07-09T09:18:31;2;2;
64138;PMS5003;50435;43.700;-79.318;2022-07-09T09:21:02;2;2;
64138;PMS5003;50435;43.700;-79.318;2022-07-09T09:23:37;1;1;
64138;PMS5003;50435;43.700;-79.318;2022-07-09T09:26:08;1;1;
64138;PMS5003;50435;43.700;-79.318;2022-07-09T09:28:45;0;0;
64138;PMS5003;50435;43.700;-79.318;2022-07-09T09:31:18;0;0;
64138;PMS5003;50435;43.700;-79.318;2022-07-09T09:33:46;2;2;
64138;PMS5003;50435;43.700;-79.318;2022-07-09T09:36:25;2;2;
64138;PMS5003;50435;43.700;-79.318;2022-07-09T09:38:53;2;2;
64138;PMS5003;50435;43.700;-79.318;2022-07-09T09:41:21;1;1;
64138;PMS5003;50435;43.700;-79.318;2022-07-09T09:43:48;1;1;
64138;PMS5003;50435;43.700;-79.318;2022-07-09T09:46:21;2;2;
64138;PMS5003;50435;43.700;-79.318;2022-07-09T09:48:50;1;1;
64138;PMS5003;50435;43.700;-79.318;2022-07-09T09:51:17;1;1;
64138;PMS5003;50435;43.700;-79.318;2022-07-09T09:53:47;3;2;
64138;PMS5003;50435;43.700;-79.318;2022-07-09T09:56:16;2;2;
64138;PMS5003;50435;43.700;-79.318;2022-07-09T09:58:44;1;1;
64138;PMS5003;50435;43.700;-79.318;2022-07-09T10:01:12;0;0;
64138;PMS5003;50435;43.700;-79.318;2022-07-09T10:03:39;1;1;
64138;PMS5003;50435;43.700;-79.318;2022-07-09T10:06:07;2;1;
64138;PMS5003;50435;43.700;-79.318;2022-07-09T10:08:35;1;1;
64138;PMS5003;50435;43.700;-79.318;2022-07-09T10:11:02;0;0;
64138;PMS5003;50435;43.700;-79.318;2022-07-09T10:13:30;2;2;
64138;PMS5003;50435;43.700;-79.318;2022-07-09T10:15:58;0;0;
64138;PMS5003;50435;43.700;-79.318;2022-07-09T10:18:26;1;1;
64138;PMS5003;50435;43.700;-79.318;2022-07-09T10:20:55;1;1;
64138;PMS5003;50435;43.700;-79.318;2022-07-09T10:23:22;0;0;
64138;PMS5003;50435;43.700;-79.318;2022-07-09T10:25:51;2;2;
64138;PMS5003;50435;43.700;-79.318;2022-07-09T10:28:19;1;1;
64138;PMS5003;50435;43.700;-79.318;2022-07-09T10:30:46;1;1;
64138;PMS5003;50435;43.700;-79.318;2022-07-09T10:33:19;1;1;
64138;PMS5003;50435;43.700;-79.318;2022-07-09T10:35:50;2;2;
64138;PMS5003;50435;43.700;-79.318;2022-07-09T10:38:19;0;0;
64138;PMS5003;50435;43.700;-79.318;2022-07-09T10:40:48;1;1;
64138;PMS5003;50435;43.700;-79.318;2022-07-09T10:43:37;0;0;
64138;PMS5003;50435;43.700;-79.318;2022-07-09T10:46:08;1;1;
64138;PMS5003;50435;43.700;-79.318;2022-07-09T10:48:37;1;1;
64138;PMS5003;50435;43.700;-79.318;2022-07-09T10:51:04;1;1;
64138;PMS5003;50435;43.700;-79.318;2022-07-09T10:53:32;0;0;
64138;PMS5003;50435;43.700;-79.318;2022-07-09T10:56:00;2;2;
64138;PMS5003;50435;43.700;-79.318;2022-07-09T10:58:27;3;3;
64138;PMS5003;50435;43.700;-79.318;2022-07-09T11:00:55;1;1;
64138;PMS5003;50435;43.700;-79.318;2022-07-09T11:03:24;1;1;
64138;PMS5003;50435;43.700;-79.318;2022-07-09T11:05:52;1;1;
64138;PMS5003;50435;43.700;-79.318;2022-07-09T11:08:20;1;1;
64138;PMS5003;50435;43.700;-79.318;2022-07-09T11:10:48;1;0;
64138;PMS5003;50435;43.700;-79.318;2022-07-09T11:13:15;2;0;
64138;PMS5003;50435;43.700;-79.318;2022-07-09T11:15:43;0;0;
64138;PMS5003;50435;43.700;-79.318;2022-07-09T11:18:11;1;0;
64138;PMS5003;50435;43.700;-79.318;2022-07-09T11:20:39;1;1;
64138;PMS5003;50435;43.700;-79.318;2022-07-09T11:23:08;0;0;
64138;PMS5003;50435;43.700;-79.318;2022-07-09T11:25:36;0;0;
64138;PMS5003;50435;43.700;-79.318;2022-07-09T11:28:04;2;1;
64138;PMS5003;50435;43.700;-79.318;2022-07-09T11:30:31;1;1;
64138;PMS5003;50435;43.700;-79.318;2022-07-09T11:32:59;0;0;
64138;PMS5003;50435;43.700;-79.318;2022-07-09T11:35:27;1;1;
64138;PMS5003;50435;43.700;-79.318;2022-07-09T11:37:56;0;0;
64138;PMS5003;50435;43.700;-79.318;2022-07-09T11:40:24;1;1;
64138;PMS5003;50435;43.700;-79.318;2022-07-09T11:42:52;2;2;
64138;PMS5003;50435;43.700;-79.318;2022-07-09T11:45:20;0;0;
64138;PMS5003;50435;43.700;-79.318;2022-07-09T11:47:48;0;0;
64138;PMS5003;50435;43.700;-79.318;2022-07-09T11:50:17;1;1;
64138;PMS5003;50435;43.700;-79.318;2022-07-09T11:52:45;0;0;
64138;PMS5003;50435;43.700;-79.318;2022-07-09T11:55:14;1;1;
64138;PMS5003;50435;43.700;-79.318;2022-07-09T11:57:50;1;1;
64138;PMS5003;50435;43.700;-79.318;2022-07-09T12:00:20;0;0;
64138;PMS5003;50435;43.700;-79.318;2022-07-09T12:02:49;1;1;
64138;PMS5003;50435;43.700;-79.318;2022-07-09T12:05:24;2;2;
64138;PMS5003;50435;43.700;-79.318;2022-07-09T12:07:53;1;1;
64138;PMS5003;50435;43.700;-79.318;2022-07-09T12:10:25;1;1;
64138;PMS5003;50435;43.700;-79.318;2022-07-09T12:12:54;0;0;
64138;PMS5003;50435;43.700;-79.318;2022-07-09T12:15:22;1;1;
64138;PMS5003;50435;43.700;-79.318;2022-07-09T12:17:51;0;0;
64138;PMS5003;50435;43.700;-79.318;2022-07-09T12:20:19;1;1;
64138;PMS5003;50435;43.700;-79.318;2022-07-09T12:22:46;3;1;
64138;PMS5003;50435;43.700;-79.318;2022-07-09T12:25:14;1;1;
64138;PMS5003;50435;43.700;-79.318;2022-07-09T12:27:42;0;0;
64138;PMS5003;50435;43.700;-79.318;2022-07-09T12:30:10;1;1;
64138;PMS5003;50435;43.700;-79.318;2022-07-09T12:32:38;1;0;
64138;PMS5003;50435;43.700;-79.318;2022-07-09T12:35:06;1;1;
64138;PMS5003;50435;43.700;-79.318;2022-07-09T12:37:34;1;1;
64138;PMS5003;50435;43.700;-79.318;2022-07-09T12:40:02;1;1;
64138;PMS5003;50435;43.700;-79.318;2022-07-09T12:42:31;1;1;
64138;PMS5003;50435;43.700;-79.318;2022-07-09T12:44:59;1;1;
64138;PMS5003;50435;43.700;-79.318;2022-07-09T12:47:27;1;1;
64138;PMS5003;50435;43.700;-79.318;2022-07-09T12:49:54;0;0;
64138;PMS5003;50435;43.700;-79.318;2022-07-09T12:52:22;0;0;
64138;PMS5003;50435;43.700;-79.318;2022-07-09T12:54:50;2;2;
64138;PMS5003;50435;43.700;-79.318;2022-07-09T12:57:17;1;1;
64138;PMS5003;50435;43.700;-79.318;2022-07-09T12:59:45;1;1;
64138;PMS5003;50435;43.700;-79.318;2022-07-09T13:02:13;0;0;
64138;PMS5003;50435;43.700;-79.318;2022-07-09T13:04:40;1;1;
64138;PMS5003;50435;43.700;-79.318;2022-07-09T13:07:08;2;2;
64138;PMS5003;50435;43.700;-79.318;2022-07-09T13:09:36;1;1;
64138;PMS5003;50435;43.700;-79.318;2022-07-09T13:12:04;1;1;
64138;PMS5003;50435;43.700;-79.318;2022-07-09T13:14:31;2;2;
64138;PMS5003;50435;43.700;-79.318;2022-07-09T13:16:59;1;1;
64138;PMS5003;50435;43.700;-79.318;2022-07-09T13:19:26;1;1;
64138;PMS5003;50435;43.700;-79.318;2022-07-09T13:21:54;0;0;
64138;PMS5003;50435;43.700;-79.318;2022-07-09T13:24:22;2;2;
64138;PMS5003;50435;43.700;-79.318;2022-07-09T13:26:49;1;1;
64138;PMS5003;50435;43.700;-79.318;2022-07-09T13:29:17;1;1;
64138;PMS5003;50435;43.700;-79.318;2022-07-09T13:31:45;0;0;
64138;PMS5003;50435;43.700;-79.318;2022-07-09T13:34:12;0;0;
64138;PMS5003;50435;43.700;-79.318;2022-07-09T13:36:40;1;1;
64138;PMS5003;50435;43.700;-79.318;2022-07-09T13:39:08;1;1;
64138;PMS5003;50435;43.700;-79.318;2022-07-09T13:41:35;2;1;
64138;PMS5003;50435;43.700;-79.318;2022-07-09T13:44:03;0;0;
64138;PMS5003;50435;43.700;-79.318;2022-07-09T13:46:31;1;1;
64138;PMS5003;50435;43.700;-79.318;2022-07-09T13:48:58;0;0;
64138;PMS5003;50435;43.700;-79.318;2022-07-09T13:51:26;2;2;
64138;PMS5003;50435;43.700;-79.318;2022-07-09T13:53:54;1;1;
64138;PMS5003;50435;43.700;-79.318;2022-07-09T13:56:21;1;1;
64138;PMS5003;50435;43.700;-79.318;2022-07-09T13:58:49;0;0;
64138;PMS5003;50435;43.700;-79.318;2022-07-09T14:01:17;0;0;
64138;PMS5003;50435;43.700;-79.318;2022-07-09T14:03:45;0;0;
64138;PMS5003;50435;43.700;-79.318;2022-07-09T14:06:12;1;1;
64138;PMS5003;50435;43.700;-79.318;2022-07-09T14:08:40;1;1;
64138;PMS5003;50435;43.700;-79.318;2022-07-09T14:11:07;1;1;
64138;PMS5003;50435;43.700;-79.318;2022-07-09T14:13:35;4;1;
64138;PMS5003;50435;43.700;-79.318;2022-07-09T14:16:03;2;2;
64138;PMS5003;50435;43.700;-79.318;2022-07-09T14:18:30;0;0;
64138;PMS5003;50435;43.700;-79.318;2022-07-09T14:20:58;2;2;
64138;PMS5003;50435;43.700;-79.318;2022-07-09T14:23:25;2;2;
64138;PMS5003;50435;43.700;-79.318;2022-07-09T14:25:53;2;2;
64138;PMS5003;50435;43.700;-79.318;2022-07-09T14:28:22;1;1;
64138;PMS5003;50435;43.700;-79.318;2022-07-09T14:30:50;1;1;
64138;PMS5003;50435;43.700;-79.318;2022-07-09T14:33:18;1;1;
64138;PMS5003;50435;43.700;-79.318;2022-07-09T14:35:45;2;2;
64138;PMS5003;50435;43.700;-79.318;2022-07-09T14:38:13;0;0;
64138;PMS5003;50435;43.700;-79.318;2022-07-09T14:40:40;1;1;
64138;PMS5003;50435;43.700;-79.318;2022-07-09T14:43:09;0;0;
64138;PMS5003;50435;43.700;-79.318;2022-07-09T14:45:36;2;2;
64138;PMS5003;50435;43.700;-79.318;2022-07-09T14:48:04;2;2;
64138;PMS5003;50435;43.700;-79.318;2022-07-09T14:50:32;1;1;
64138;PMS5003;50435;43.700;-79.318;2022-07-09T14:53:00;2;2;
64138;PMS5003;50435;43.700;-79.318;2022-07-09T14:55:27;0;0;
64138;PMS5003;50435;43.700;-79.318;2022-07-09T14:57:55;1;1;
64138;PMS5003;50435;43.700;-79.318;2022-07-09T15:00:22;1;1;
64138;PMS5003;50435;43.700;-79.318;2022-07-09T15:02:50;1;1;
64138;PMS5003;50435;43.700;-79.318;2022-07-09T15:05:17;1;1;
64138;PMS5003;50435;43.700;-79.318;2022-07-09T15:07:45;1;1;
64138;PMS5003;50435;43.700;-79.318;2022-07-09T15:10:13;1;1;
64138;PMS5003;50435;43.700;-79.318;2022-07-09T15:12:40;2;2;
64138;PMS5003;50435;43.700;-79.318;2022-07-09T15:15:08;1;1;
64138;PMS5003;50435;43.700;-79.318;2022-07-09T15:17:35;1;1;
64138;PMS5003;50435;43.700;-79.318;2022-07-09T15:20:03;2;1;
64138;PMS5003;50435;43.700;-79.318;2022-07-09T15:22:31;2;2;
64138;PMS5003;50435;43.700;-79.318;2022-07-09T15:24:59;1;1;
64138;PMS5003;50435;43.700;-79.318;2022-07-09T15:27:27;2;2;
64138;PMS5003;50435;43.700;-79.318;2022-07-09T15:29:54;1;1;
64138;PMS5003;50435;43.700;-79.318;2022-07-09T15:32:21;2;2;
64138;PMS5003;50435;43.700;-79.318;2022-07-09T15:34:49;5;1;
64138;PMS5003;50435;43.700;-79.318;2022-07-09T15:37:17;1;1;
64138;PMS5003;50435;43.700;-79.318;2022-07-09T15:39:44;2;2;
64138;PMS5003;50435;43.700;-79.318;2022-07-09T15:42:12;2;1;
64138;PMS5003;50435;43.700;-79.318;2022-07-09T15:44:40;2;2;
64138;PMS5003;50435;43.700;-79.318;2022-07-09T15:47:07;2;2;
64138;PMS5003;50435;43.700;-79.318;2022-07-09T15:49:34;1;1;
64138;PMS5003;50435;43.700;-79.318;2022-07-09T15:52:02;0;0;
64138;PMS5003;50435;43.700;-79.318;2022-07-09T15:54:31;1;1;
64138;PMS5003;50435;43.700;-79.318;2022-07-09T15:57:00;2;2;
64138;PMS5003;50435;43.700;-79.318;2022-07-09T15:59:27;2;2;
64138;PMS5003;50435;43.700;-79.318;2022-07-09T16:01:55;1;1;
64138;PMS5003;50435;43.700;-79.318;2022-07-09T16:04:22;2;2;
64138;PMS5003;50435;43.700;-79.318;2022-07-09T16:06:50;2;2;
64138;PMS5003;50435;43.700;-79.318;2022-07-09T16:09:17;1;1;
64138;PMS5003;50435;43.700;-79.318;2022-07-09T16:11:45;3;2;
64138;PMS5003;50435;43.700;-79.318;2022-07-09T16:14:12;2;2;
64138;PMS5003;50435;43.700;-79.318;2022-07-09T16:16:40;2;2;
64138;PMS5003;50435;43.700;-79.318;2022-07-09T16:19:08;5;5;
64138;PMS5003;50435;43.700;-79.318;2022-07-09T16:21:36;1;1;